createdAt,value
2024-01-14T00:03:38.417Z,1.58
2024-01-14T00:08:39.455Z,1.56
2024-01-14T00:13:38.041Z,1.59
2024-01-14T00:18:42.203Z,1.6
2024-01-14T00:23:38.045Z,1.54
2024-01-14T00:28:38.624Z,1.42
2024-01-14T00:33:38.126Z,1.31
2024-01-14T00:38:38.106Z,1.22
2024-01-14T00:43:38.121Z,1.05
2024-01-14T00:48:38.251Z,0.96
2024-01-14T00:53:37.968Z,0.94
2024-01-14T00:58:39.357Z,0.96
2024-01-14T01:03:38.650Z,1.04
2024-01-14T01:08:37.958Z,1.01
2024-01-14T01:13:38.268Z,1.07
2024-01-14T01:18:38.602Z,1.23
2024-01-14T01:23:38.146Z,1.26
2024-01-14T01:28:37.964Z,1.2
2024-01-14T01:33:38.868Z,1.04
2024-01-14T01:38:38.171Z,0.94
2024-01-14T01:43:38.121Z,0.65
2024-01-14T01:48:38.626Z,0.49
2024-01-14T01:53:38.558Z,0.35
2024-01-14T01:58:38.082Z,0.27
2024-01-14T02:03:39.072Z,0.48
2024-01-14T02:08:38.098Z,0.61
2024-01-14T02:13:40.615Z,0.61
2024-01-14T02:18:39.088Z,0.76
2024-01-14T02:23:39.953Z,0.79
2024-01-14T02:28:38.012Z,0.76
2024-01-14T02:33:39.346Z,0.8
2024-01-14T02:38:38.048Z,0.78
2024-01-14T02:43:38.019Z,0.87
2024-01-14T02:48:38.137Z,0.97
2024-01-14T02:53:38.182Z,0.99
2024-01-14T02:58:38.270Z,0.98
2024-01-14T03:03:38.244Z,1.03
2024-01-14T03:08:38.414Z,1.07
2024-01-14T03:13:38.464Z,1.12
2024-01-14T03:18:38.438Z,1.02
2024-01-14T03:23:38.304Z,0.99
2024-01-14T03:28:40.948Z,0.96
2024-01-14T03:33:38.194Z,0.86
2024-01-14T03:38:38.052Z,0.89
2024-01-14T03:43:38.300Z,0.93
2024-01-14T03:48:39.156Z,1
2024-01-14T03:53:38.240Z,1.08
2024-01-14T03:58:38.128Z,1.07
2024-01-14T04:03:38.155Z,1.08
2024-01-14T04:08:38.243Z,1.1
2024-01-14T04:13:38.199Z,1.1
2024-01-14T04:18:38.441Z,1.11
2024-01-14T04:23:38.150Z,1.08
2024-01-14T04:28:39.444Z,1.08
2024-01-14T04:33:38.214Z,1.09
2024-01-14T04:38:39.552Z,1.12
2024-01-14T04:43:38.159Z,1.11
2024-01-14T04:48:38.819Z,1.1
2024-01-14T04:53:38.120Z,1.08
2024-01-14T04:58:38.195Z,1.09
2024-01-14T05:03:38.761Z,1.1
2024-01-14T05:08:39.096Z,1.09
2024-01-14T05:13:38.099Z,1.08
2024-01-14T05:18:39.563Z,1.07
2024-01-14T05:23:38.186Z,1.06
2024-01-14T05:28:38.193Z,1.11
2024-01-14T05:33:38.376Z,1.1
2024-01-14T05:38:38.220Z,1.11
2024-01-14T05:43:38.423Z,1.12
2024-01-14T05:48:38.557Z,1.11
2024-01-14T05:53:41.511Z,1.11
2024-01-14T05:58:39.671Z,1.13
2024-01-14T06:03:38.259Z,1.12
2024-01-14T06:08:38.315Z,1.11
2024-01-14T06:13:38.319Z,1.06
2024-01-14T06:18:38.680Z,1.08
2024-01-14T06:23:39.524Z,1.1
2024-01-14T06:28:38.189Z,1.07
2024-01-14T06:33:39.960Z,1.06
2024-01-14T06:38:38.845Z,1.01
2024-01-14T06:43:38.686Z,0.97
2024-01-14T06:48:38.393Z,0.86
2024-01-14T06:53:39.092Z,0.85
2024-01-14T06:58:39.416Z,0.84
2024-01-14T07:03:38.746Z,0.84
2024-01-14T07:08:41.401Z,0.87
2024-01-14T07:13:40.130Z,0.82
2024-01-14T07:18:44.547Z,0.8
2024-01-14T07:23:46.054Z,0.82
2024-01-14T07:28:38.432Z,0.77
2024-01-14T07:33:38.334Z,0.73
2024-01-14T07:38:38.359Z,0.69
2024-01-14T07:43:38.240Z,0.68
2024-01-14T07:48:40.337Z,0.67
2024-01-14T07:53:42.305Z,0.68
2024-01-14T07:58:38.567Z,0.65
2024-01-14T08:03:38.463Z,0.68
2024-01-14T08:08:38.968Z,0.66
2024-01-14T08:13:41.224Z,0.66
2024-01-14T08:18:38.412Z,0.64
2024-01-14T08:23:38.400Z,0.61
2024-01-14T08:28:46.822Z,0.57
2024-01-14T08:33:43.182Z,0.58
2024-01-14T08:38:38.489Z,0.66
2024-01-14T08:43:39.450Z,0.61
2024-01-14T08:48:38.876Z,0.55
2024-01-14T08:53:38.403Z,0.56
2024-01-14T08:58:38.646Z,0.57
2024-01-14T09:03:38.607Z,0.54
2024-01-14T09:08:48.331Z,0.58
2024-01-14T09:13:38.421Z,0.55
2024-01-14T09:18:38.732Z,0.62
2024-01-14T09:23:38.806Z,0.58
2024-01-14T09:28:40.047Z,0.53
2024-01-14T09:33:38.636Z,0.43
2024-01-14T09:38:38.916Z,0.48
2024-01-14T09:43:42.600Z,0.45
2024-01-14T09:48:39.268Z,0.38
2024-01-14T09:53:39.211Z,0.39
2024-01-14T09:58:43.202Z,0.41
2024-01-14T10:03:39.011Z,0.46
2024-01-14T10:08:45.721Z,0.52
2024-01-14T10:13:39.670Z,0.61
2024-01-14T10:18:44.150Z,0.66
2024-01-14T10:23:39.907Z,0.66
2024-01-14T10:28:43.589Z,0.71
2024-01-14T10:33:42.855Z,0.69
2024-01-14T10:38:39.281Z,0.78
2024-01-14T10:43:38.671Z,0.78
2024-01-14T10:48:42.617Z,0.81
2024-01-14T10:53:42.082Z,0.85
2024-01-14T10:58:44.149Z,0.86
2024-01-14T11:03:40.240Z,0.82
2024-01-14T11:08:38.855Z,0.96
2024-01-14T11:13:43.978Z,0.95
2024-01-14T11:18:53.856Z,0.99
2024-01-14T11:23:41.079Z,1
2024-01-14T11:28:38.577Z,0.99
2024-01-14T11:33:45.093Z,1.04
2024-01-14T11:38:42.293Z,0.98
2024-01-14T11:43:40.534Z,1.08
2024-01-14T11:48:38.725Z,1.15
2024-01-14T11:53:44.213Z,1.22
2024-01-14T11:58:38.467Z,1.15
2024-01-14T12:03:39.361Z,1.21
2024-01-14T12:08:43.987Z,1.25
2024-01-14T12:13:41.951Z,1.24
2024-01-14T12:18:50.312Z,1.23
2024-01-14T12:23:38.568Z,1.18
2024-01-14T12:28:39.124Z,1.2
2024-01-14T12:33:39.068Z,1.27
2024-01-14T12:38:38.579Z,1.39
2024-01-14T12:43:39.736Z,1.33
2024-01-14T12:48:38.731Z,1.43
2024-01-14T12:53:38.552Z,1.53
2024-01-14T12:58:42.331Z,1.53
2024-01-14T13:03:40.551Z,1.54
2024-01-14T13:08:41.737Z,1.55
2024-01-14T13:13:41.777Z,1.38
2024-01-14T13:18:38.996Z,1.3
2024-01-14T13:23:41.064Z,1.27
2024-01-14T13:28:40.391Z,1.25
2024-01-14T13:33:38.768Z,1.25
2024-01-14T13:38:38.972Z,1.19
2024-01-14T13:43:39.200Z,1.2
2024-01-14T13:48:40.096Z,1.18
2024-01-14T13:53:39.331Z,1.1
2024-01-14T13:58:38.561Z,1.12
2024-01-14T14:03:40.395Z,1.09
2024-01-14T14:08:38.459Z,1.06
2024-01-14T14:13:38.648Z,1.06
2024-01-14T14:18:38.696Z,1.06
2024-01-14T14:23:41.135Z,1.04
2024-01-14T14:28:40.422Z,1.08
2024-01-14T14:33:41.284Z,1.02
2024-01-14T14:38:38.507Z,1.08
2024-01-14T14:43:38.604Z,1.04
2024-01-14T14:48:38.938Z,1.01
2024-01-14T14:53:39.119Z,1.03
2024-01-14T14:58:38.739Z,0.99
2024-01-14T15:03:38.866Z,0.94
2024-01-14T15:08:38.584Z,0.97
2024-01-14T15:13:38.701Z,0.95
2024-01-14T15:18:38.898Z,0.84
2024-01-14T15:23:39.943Z,0.8
2024-01-14T15:28:38.634Z,0.75
2024-01-14T15:33:41.527Z,0.72
2024-01-14T15:38:41.139Z,0.68
2024-01-14T15:43:40.513Z,0.56
2024-01-14T15:48:40.502Z,0.57
2024-01-14T15:53:38.918Z,0.45
2024-01-14T15:58:41.328Z,0.33
2024-01-14T16:03:40.474Z,0.29
2024-01-14T16:08:38.496Z,0.32
2024-01-14T16:13:38.684Z,0.33
2024-01-14T16:18:39.501Z,0.37
2024-01-14T16:23:39.886Z,0.3
2024-01-14T16:28:40.203Z,0.26
2024-01-14T16:33:39.020Z,0.19
2024-01-14T16:38:42.262Z,0.23
2024-01-14T16:43:38.966Z,0.2
2024-01-14T16:48:40.596Z,0.2
2024-01-14T16:53:38.845Z,0.15
2024-01-14T16:58:42.476Z,0.13
2024-01-14T17:03:38.763Z,0.13
2024-01-14T17:08:38.693Z,0.09
2024-01-14T17:13:38.584Z,0.01
2024-01-14T17:18:39.547Z,0.04
2024-01-14T17:23:38.575Z,0.02
2024-01-14T17:28:41.656Z,0.04
2024-01-14T17:33:39.055Z,0.1
2024-01-14T17:38:38.752Z,0.1
2024-01-14T17:43:38.719Z,0.09
2024-01-14T17:48:41.343Z,0.06
2024-01-14T17:53:38.838Z,0.05
2024-01-14T17:58:41.574Z,0.08
2024-01-14T18:03:39.534Z,0.05
2024-01-14T18:08:38.796Z,-0.01
2024-01-14T18:13:40.321Z,0
2024-01-14T18:18:41.872Z,-0.03
2024-01-14T18:23:40.969Z,-0.04
2024-01-14T18:28:41.184Z,-0.02
2024-01-14T18:33:38.957Z,-0.01
2024-01-14T18:38:39.005Z,-0.04
2024-01-14T18:43:41.976Z,-0.04
2024-01-14T18:48:40.111Z,-0.02
2024-01-14T18:53:38.700Z,-0.01
2024-01-14T18:58:39.011Z,-0.08
2024-01-14T19:03:40.289Z,-0.07
2024-01-14T19:08:38.846Z,-0.08
2024-01-14T19:13:38.724Z,-0.12
2024-01-14T19:18:39.021Z,-0.17
2024-01-14T19:23:38.818Z,-0.19
2024-01-14T19:28:38.841Z,-0.13
2024-01-14T19:33:40.604Z,-0.12
2024-01-14T19:38:40.466Z,-0.09
2024-01-14T19:43:39.494Z,-0.09
2024-01-14T19:48:41.045Z,-0.14
2024-01-14T19:53:39.549Z,-0.08
2024-01-14T19:58:41.011Z,-0.08
2024-01-14T20:03:38.799Z,-0.08
2024-01-14T20:08:38.920Z,-0.1
2024-01-14T20:13:38.958Z,-0.08
2024-01-14T20:18:38.973Z,-0.03
2024-01-14T20:23:40.006Z,-0.06
2024-01-14T20:28:39.345Z,-0.02
2024-01-14T20:33:40.513Z,-0.03
2024-01-14T20:38:41.316Z,0
2024-01-14T20:43:38.827Z,0.02
2024-01-14T20:48:39.112Z,-0.01
2024-01-14T20:53:38.959Z,-0.01
2024-01-14T20:58:38.974Z,0
2024-01-14T21:03:39.386Z,-0.06
2024-01-14T21:08:38.973Z,0
2024-01-14T21:13:41.860Z,0.12
2024-01-14T21:18:41.454Z,0.05
2024-01-14T21:23:41.620Z,0.11
2024-01-14T21:28:38.853Z,0.14
2024-01-14T21:33:39.197Z,0.16
2024-01-14T21:38:39.122Z,0.13
2024-01-14T21:43:40.505Z,0.12
2024-01-14T21:48:39.348Z,0.12
2024-01-14T21:53:38.938Z,0.13
2024-01-14T21:58:39.398Z,0.12
2024-01-14T22:03:39.066Z,0.11
2024-01-14T22:08:38.856Z,0.05
2024-01-14T22:13:39.507Z,-0.02
2024-01-14T22:18:41.442Z,-0.11
2024-01-14T22:23:38.916Z,-0.15
2024-01-14T22:28:38.722Z,-0.32
2024-01-14T22:33:39.186Z,-0.53
2024-01-14T22:38:38.807Z,-0.65
2024-01-14T22:43:39.694Z,-0.7
2024-01-14T22:48:38.946Z,-0.69
2024-01-14T22:53:38.858Z,-0.73
2024-01-14T22:58:39.126Z,-0.65
2024-01-14T23:03:39.777Z,-0.79
2024-01-14T23:08:38.725Z,-1.01
2024-01-14T23:13:38.894Z,-1.19
2024-01-14T23:18:38.911Z,-1.38
2024-01-14T23:23:38.797Z,-1.5
2024-01-14T23:28:38.920Z,-1.55
2024-01-14T23:33:38.937Z,-1.58
2024-01-14T23:38:38.759Z,-1.6
2024-01-14T23:43:38.838Z,-1.68
2024-01-14T23:48:38.801Z,-1.67
2024-01-14T23:53:38.803Z,-1.81
2024-01-14T23:58:38.798Z,-1.8
